Time;durP1;ratioP1;P1;durP2;ratioP2;P2;SDS_P1;SDS_P2;PMS_P1;PMS_P2;Temp;Humidity;BMP_temperature;BMP_pressure;BME280_temperature;BME280_humidity;BME280_pressure;Samples;Min_cycle;Max_cycle;Signal;HPM_P1;HPM_P2
2021/12/12 00:01:24;;;;;;;8.85;4.90;;;5.40;99.90;;;;;;5092922;28;20046;-80
2021/12/12 00:03:56;;;;;;;10.23;5.28;;;5.40;99.90;;;;;;5091569;28;20026;-79
2021/12/12 00:06:32;;;;;;;11.13;5.60;;;5.30;99.90;;;;;;5092518;28;20112;-79
2021/12/12 00:09:12;;;;;;;11.13;6.15;;;5.30;99.90;;;;;;5091554;28;20107;-79
2021/12/12 00:11:38;;;;;;;8.95;5.50;;;5.20;99.90;;;;;;5091301;28;20036;-79
2021/12/12 00:14:16;;;;;;;12.75;6.28;;;5.20;99.90;;;;;;5096328;28;20044;-80
2021/12/12 00:16:43;;;;;;;10.95;6.15;;;5.10;99.90;;;;;;5095183;28;20031;-79
2021/12/12 00:19:10;;;;;;;12.68;7.05;;;5.00;99.90;;;;;;5095172;28;20028;-80
2021/12/12 00:21:38;;;;;;;9.75;5.05;;;4.80;99.90;;;;;;5092325;28;20035;-79
2021/12/12 00:24:06;;;;;;;9.10;5.20;;;4.70;99.90;;;;;;5093766;28;20027;-79
2021/12/12 00:26:32;;;;;;;8.98;4.95;;;4.80;99.90;;;;;;5091438;28;20031;-78
2021/12/12 00:28:58;;;;;;;;;;;4.90;99.90;;;;;;5093529;28;20024;-78
2021/12/12 00:31:25;;;;;;;7.70;4.50;;;4.80;99.90;;;;;;5092834;28;20315;-80
2021/12/12 00:33:53;;;;;;;9.82;4.95;;;4.70;99.90;;;;;;5094857;28;20083;-80
2021/12/12 00:36:19;;;;;;;8.30;4.25;;;4.70;99.90;;;;;;5096510;28;20028;-79
2021/12/12 00:38:53;;;;;;;8.00;5.18;;;4.70;99.90;;;;;;5093101;28;20032;-79
2021/12/12 00:41:30;;;;;;;8.38;5.00;;;4.60;99.90;;;;;;5092855;28;20024;-80
2021/12/12 00:43:59;;;;;;;7.70;4.47;;;4.60;99.90;;;;;;5093279;28;20040;-78
2021/12/12 00:46:26;;;;;;;8.68;5.57;;;4.50;99.90;;;;;;5093350;28;20038;-79
2021/12/12 00:48:53;;;;;;;10.77;5.45;;;4.40;99.90;;;;;;5093573;28;20028;-79
2021/12/12 00:51:26;;;;;;;7.40;4.55;;;4.40;99.90;;;;;;5090288;28;20031;-79
2021/12/12 00:53:52;;;;;;;10.80;5.80;;;4.40;99.90;;;;;;5091508;28;20039;-79
2021/12/12 00:56:18;;;;;;;9.57;5.72;;;4.60;99.90;;;;;;5091829;28;20031;-78
2021/12/12 00:58:44;;;;;;;8.55;5.30;;;4.60;99.90;;;;;;5092610;28;20028;-79
2021/12/12 01:01:25;;;;;;;8.02;5.05;;;4.60;99.90;;;;;;5090745;28;20173;-78
2021/12/12 01:03:56;;;;;;;8.35;4.72;;;4.60;99.90;;;;;;5090080;28;20040;-79
2021/12/12 01:06:23;;;;;;;9.23;5.30;;;4.60;99.90;;;;;;5091999;28;20048;-79
2021/12/12 01:08:52;;;;;;;9.00;4.82;;;4.50;99.90;;;;;;5090121;28;20039;-79
2021/12/12 01:11:34;;;;;;;10.38;5.20;;;4.40;99.90;;;;;;5090780;28;20063;-78
2021/12/12 01:14:03;;;;;;;9.63;4.88;;;4.40;99.90;;;;;;5090482;28;20473;-78
2021/12/12 01:16:41;;;;;;;9.45;5.60;;;4.40;99.90;;;;;;5092295;28;20488;-78
2021/12/12 01:19:21;;;;;;;11.35;5.78;;;4.40;99.90;;;;;;5088859;28;20177;-79
2021/12/12 01:21:52;;;;;;;10.98;6.38;;;4.40;99.90;;;;;;5099051;28;20112;-81
2021/12/12 01:24:33;;;;;;;10.88;6.05;;;4.30;99.90;;;;;;5099340;28;20480;-80
2021/12/12 01:27:00;;;;;;;9.65;5.50;;;4.40;99.90;;;;;;5098553;28;20032;-80
2021/12/12 01:29:27;;;;;;;11.43;6.60;;;4.20;99.90;;;;;;5102035;28;20089;-79
2021/12/12 01:31:54;;;;;;;9.82;5.68;;;4.40;99.90;;;;;;5097460;28;20087;-78
2021/12/12 01:34:24;;;;;;;11.63;6.53;;;4.40;99.90;;;;;;5096468;28;20024;-79
2021/12/12 01:37:34;;;;;;;10.93;5.60;;;4.30;99.90;;;;;;5099874;28;20031;-79
2021/12/12 01:40:25;;;;;;;11.32;6.18;;;4.20;99.90;;;;;;5106392;28;20020;-79
2021/12/12 01:42:59;;;;;;;10.27;5.72;;;4.20;99.90;;;;;;5097551;28;20485;-79
2021/12/12 01:45:37;;;;;;;11.30;5.93;;;4.20;99.90;;;;;;5095157;28;20024;-79
2021/12/12 01:48:07;;;;;;;10.88;5.93;;;4.10;99.90;;;;;;5091186;28;20392;-79
2021/12/12 01:50:36;;;;;;;11.32;6.53;;;4.10;99.90;;;;;;5093002;28;20035;-79
2021/12/12 01:53:06;;;;;;;12.32;5.40;;;4.10;99.90;;;;;;5099944;28;20028;-80
2021/12/12 01:55:54;;;;;;;10.13;5.47;;;4.10;99.90;;;;;;5099642;28;20020;-80
2021/12/12 01:58:24;;;;;;;12.23;4.95;;;4.10;99.90;;;;;;5095565;28;20070;-79
2021/12/12 02:01:25;;;;;;;9.35;5.25;;;4.20;99.90;;;;;;5093514;28;20846;-79
2021/12/12 02:04:01;;;;;;;11.18;5.65;;;4.40;99.90;;;;;;5097175;28;20517;-78
2021/12/12 02:06:28;;;;;;;10.32;6.30;;;4.60;99.90;;;;;;5091646;28;20118;-78
2021/12/12 02:08:56;;;;;;;14.32;7.10;;;4.60;99.90;;;;;;5089363;28;20028;-79
2021/12/12 02:11:27;;;;;;;9.93;5.45;;;4.50;99.90;;;;;;5091117;28;20561;-79
2021/12/12 02:13:57;;;;;;;11.77;6.22;;;4.60;99.90;;;;;;5093352;28;20020;-79
2021/12/12 02:16:25;;;;;;;10.43;5.25;;;4.80;99.90;;;;;;5095321;28;20028;-79
2021/12/12 02:18:55;;;;;;;11.50;5.90;;;4.80;99.90;;;;;;5091555;28;20111;-78
2021/12/12 02:22:01;;;;;;;10.00;6.03;;;5.00;99.90;;;;;;5092666;28;20061;-80
2021/12/12 02:35:42;;;;;;;;;;;4.90;99.90;;;;;;5092522;28;20039;-79
2021/12/12 02:38:11;;;;;;;12.38;6.07;;;4.80;99.90;;;;;;5093086;28;20056;-80
2021/12/12 02:40:44;;;;;;;12.65;6.32;;;4.80;99.90;;;;;;5093771;28;20020;-79
2021/12/12 02:43:13;;;;;;;11.18;5.68;;;4.70;99.90;;;;;;5091288;28;20024;-79
2021/12/12 02:45:41;;;;;;;11.48;5.65;;;4.70;99.90;;;;;;5092367;28;20035;-79
2021/12/12 02:48:09;;;;;;;11.77;6.53;;;4.60;99.90;;;;;;5094674;28;20036;-79
2021/12/12 02:50:43;;;;;;;11.98;6.60;;;4.50;99.90;;;;;;5095930;28;20027;-80
2021/12/12 02:53:17;;;;;;;8.27;4.30;;;4.50;99.90;;;;;;5094974;28;20047;-80
2021/12/12 02:55:46;;;;;;;10.65;5.75;;;4.50;99.90;;;;;;5098002;28;20515;-79
2021/12/12 02:58:16;;;;;;;11.60;5.15;;;4.60;99.90;;;;;;5094544;28;20076;-78
2021/12/12 03:00:48;;;;;;;10.52;4.75;;;4.50;99.90;;;;;;5092109;28;20027;-79
2021/12/12 03:03:14;;;;;;;11.95;6.60;;;4.50;99.90;;;;;;5090741;28;20032;-78
2021/12/12 03:05:43;;;;;;;;;;;4.50;99.90;;;;;;5092774;28;20396;-78
2021/12/12 03:08:10;;;;;;;10.60;4.65;;;4.50;99.90;;;;;;5092432;28;19904;-79
2021/12/12 03:10:40;;;;;;;8.95;5.03;;;4.40;99.90;;;;;;5091054;28;20048;-78
2021/12/12 03:13:07;;;;;;;8.65;4.47;;;4.50;99.90;;;;;;5090693;28;20040;-79
2021/12/12 03:15:39;;;;;;;11.25;6.03;;;4.50;99.90;;;;;;5092834;28;20044;-77
2021/12/12 03:18:08;;;;;;;9.65;5.90;;;4.40;99.90;;;;;;5092603;28;20312;-79
2021/12/12 03:20:37;;;;;;;12.15;6.13;;;4.40;99.90;;;;;;5090974;28;20025;-78
2021/12/12 03:23:03;;;;;;;11.15;4.97;;;4.30;99.90;;;;;;5093943;28;20032;-80
2021/12/12 03:25:30;;;;;;;;;;;4.40;99.90;;;;;;5097377;28;20546;-78
2021/12/12 03:27:55;;;;;;;11.88;5.78;;;4.30;99.90;;;;;;5092240;28;19982;-78
2021/12/12 03:30:21;;;;;;;;;;;4.30;99.90;;;;;;5094868;28;20034;-79
2021/12/12 03:32:47;;;;;;;9.57;4.70;;;4.30;99.90;;;;;;5096303;28;20003;-79
2021/12/12 03:35:12;;;;;;;;;;;4.30;99.90;;;;;;5093410;28;20024;-79
2021/12/12 03:37:40;;;;;;;7.20;3.83;;;4.30;99.90;;;;;;5095623;28;20031;-78
2021/12/12 03:40:24;;;;;;;9.45;4.53;;;4.40;99.90;;;;;;5094695;28;20016;-81
2021/12/12 03:42:53;;;;;;;10.80;4.47;;;4.50;99.90;;;;;;5093935;28;20088;-79
2021/12/12 03:45:19;;;;;;;9.30;4.78;;;4.60;99.90;;;;;;5094746;28;20028;-79
2021/12/12 03:48:08;;;;;;;8.77;5.05;;;4.60;99.90;;;;;;5092857;28;20035;-79
2021/12/12 03:50:37;;;;;;;9.10;5.10;;;4.60;99.90;;;;;;5096199;28;20031;-78
2021/12/12 03:53:05;;;;;;;8.20;4.57;;;4.60;99.90;;;;;;5093763;28;20048;-79
2021/12/12 03:55:34;;;;;;;6.07;3.90;;;4.70;99.90;;;;;;5095228;28;20031;-79
2021/12/12 03:58:02;;;;;;;12.10;4.28;;;4.70;99.90;;;;;;5095618;28;20389;-79
2021/12/12 04:00:51;;;;;;;9.52;4.70;;;4.60;99.90;;;;;;5098235;28;20048;-79
2021/12/12 04:03:18;;;;;;;6.90;4.35;;;4.50;99.90;;;;;;5098385;28;20032;-79
2021/12/12 04:05:49;;;;;;;9.55;4.60;;;4.40;99.90;;;;;;5098424;28;20024;-79
2021/12/12 04:08:16;;;;;;;8.25;4.60;;;4.30;99.90;;;;;;5098887;28;20055;-80
2021/12/12 04:10:42;;;;;;;8.98;5.68;;;4.20;99.90;;;;;;5100912;28;20055;-80
2021/12/12 04:13:09;;;;;;;8.65;5.10;;;4.20;99.90;;;;;;5105512;28;20039;-80
2021/12/12 04:15:35;;;;;;;8.00;5.13;;;4.10;99.90;;;;;;5107409;28;20020;-79
2021/12/12 04:18:01;;;;;;;10.32;5.80;;;4.10;99.90;;;;;;5100351;28;20035;-79
2021/12/12 04:20:33;;;;;;;9.18;5.03;;;3.90;99.90;;;;;;5092184;28;20023;-78
2021/12/12 04:22:59;;;;;;;11.43;5.65;;;4.00;99.90;;;;;;5092066;28;20032;-79
2021/12/12 04:25:25;;;;;;;;;;;4.00;99.90;;;;;;5092371;28;20495;-78
2021/12/12 04:27:53;;;;;;;11.52;6.30;;;3.90;99.90;;;;;;5094454;28;20466;-80
2021/12/12 04:30:19;;;;;;;10.80;5.20;;;3.80;99.90;;;;;;5093232;28;20141;-78
2021/12/12 04:32:46;;;;;;;9.95;5.93;;;3.80;99.90;;;;;;5093350;28;20075;-78
2021/12/12 04:35:21;;;;;;;11.70;5.97;;;3.70;99.90;;;;;;5093711;28;20081;-78
2021/12/12 04:37:48;;;;;;;14.02;6.68;;;3.80;99.90;;;;;;5093659;28;20024;-80
2021/12/12 04:40:17;;;;;;;14.48;7.35;;;3.70;99.90;;;;;;5095700;28;20020;-79
2021/12/12 04:42:45;;;;;;;10.98;6.40;;;3.70;99.90;;;;;;5094787;28;20032;-79
2021/12/12 04:45:29;;;;;;;12.63;7.25;;;3.60;99.90;;;;;;5092591;28;20024;-78
2021/12/12 04:51:24;;;;;;;14.45;6.53;;;3.50;99.90;;;;;;5096189;28;20054;-80
2021/12/12 04:53:59;;;;;;;15.98;7.43;;;3.50;99.90;;;;;;5095915;28;20032;-79
2021/12/12 04:56:35;;;;;;;11.50;6.82;;;3.40;99.90;;;;;;5095076;28;20381;-79
2021/12/12 04:59:22;;;;;;;13.65;7.20;;;3.40;99.90;;;;;;5102439;28;20032;-80
2021/12/12 05:01:56;;;;;;;15.60;8.27;;;3.40;99.90;;;;;;5093332;28;20047;-79
2021/12/12 05:04:31;;;;;;;12.57;7.38;;;3.30;99.90;;;;;;5094375;28;20032;-79
2021/12/12 05:07:18;;;;;;;13.15;7.40;;;3.30;99.90;;;;;;5093065;28;20077;-79
2021/12/12 05:09:50;;;;;;;14.77;8.07;;;3.40;99.90;;;;;;5092333;28;20048;-80
2021/12/12 05:12:31;;;;;;;16.27;7.95;;;3.30;99.90;;;;;;5093981;28;20118;-80
2021/12/12 05:15:05;;;;;;;17.10;8.35;;;3.30;99.90;;;;;;5094635;28;20020;-79
2021/12/12 05:17:49;;;;;;;19.92;8.98;;;3.20;99.90;;;;;;5092713;28;20050;-79
2021/12/12 05:20:25;;;;;;;18.63;8.98;;;3.20;99.90;;;;;;5091851;28;20028;-79
2021/12/12 05:22:55;;;;;;;17.33;9.07;;;3.20;99.90;;;;;;5093237;28;20044;-79
2021/12/12 05:25:25;;;;;;;18.10;9.95;;;3.20;99.90;;;;;;5093642;28;20028;-80
2021/12/12 05:27:55;;;;;;;18.13;11.13;;;3.30;99.90;;;;;;5092737;28;20023;-80
2021/12/12 05:30:30;;;;;;;18.63;9.93;;;3.40;99.90;;;;;;5091981;28;20032;-79
2021/12/12 05:32:56;;;;;;;20.23;10.32;;;3.60;99.90;;;;;;5092432;28;20118;-79
2021/12/12 05:35:27;;;;;;;18.45;9.43;;;3.50;99.90;;;;;;5095506;28;20046;-80
2021/12/12 05:37:54;;;;;;;20.33;10.43;;;3.50;99.90;;;;;;5091897;28;20020;-79
2021/12/12 05:40:23;;;;;;;20.80;9.30;;;3.60;99.90;;;;;;5093016;28;20016;-79
2021/12/12 05:42:55;;;;;;;20.92;9.93;;;3.70;99.90;;;;;;5095280;28;20028;-80
2021/12/12 05:45:21;;;;;;;23.77;10.98;;;3.70;99.90;;;;;;5093036;28;20159;-79
2021/12/12 05:47:48;;;;;;;24.33;10.13;;;3.70;99.90;;;;;;5094323;28;20035;-79
2021/12/12 05:50:16;;;;;;;18.77;10.70;;;3.80;99.90;;;;;;5091995;28;20024;-80
2021/12/12 05:52:44;;;;;;;18.95;9.52;;;3.80;99.90;;;;;;5092994;28;20032;-80
2021/12/12 05:55:12;;;;;;;21.15;10.23;;;3.80;99.90;;;;;;5090188;28;20028;-80
2021/12/12 05:57:38;;;;;;;21.35;10.75;;;3.80;99.90;;;;;;5095656;28;20080;-80
2021/12/12 06:00:11;;;;;;;21.48;10.23;;;3.80;99.90;;;;;;5095863;28;20503;-79
2021/12/12 06:02:38;;;;;;;20.65;10.10;;;3.70;99.90;;;;;;5093959;28;20046;-78
2021/12/12 06:05:04;;;;;;;25.73;10.30;;;3.70;99.90;;;;;;5091946;28;20086;-77
2021/12/12 06:07:34;;;;;;;21.02;10.05;;;3.80;99.90;;;;;;5088335;28;20028;-77
2021/12/12 06:10:04;;;;;;;18.38;10.27;;;3.90;99.90;;;;;;5091185;28;20048;-78
2021/12/12 06:12:33;;;;;;;18.02;8.93;;;3.70;99.90;;;;;;5088809;28;20500;-78
2021/12/12 06:15:01;;;;;;;18.27;8.55;;;3.70;99.90;;;;;;5096620;28;20062;-78
2021/12/12 06:17:27;;;;;;;20.90;10.57;;;3.70;99.90;;;;;;5094735;28;20028;-79
2021/12/12 06:19:55;;;;;;;19.10;10.13;;;3.80;99.90;;;;;;5092114;28;20020;-80
2021/12/12 06:22:21;;;;;;;15.20;7.60;;;3.80;99.90;;;;;;5100047;28;20028;-79
2021/12/12 06:24:48;;;;;;;;;;;3.80;99.90;;;;;;5101228;28;20028;-80
2021/12/12 06:27:17;;;;;;;21.65;10.90;;;3.90;99.90;;;;;;5104008;28;19908;-77
2021/12/12 06:29:46;;;;;;;15.73;8.05;;;3.80;99.90;;;;;;5093484;28;20488;-78
2021/12/12 06:32:12;;;;;;;18.48;9.35;;;3.80;99.90;;;;;;5096248;28;20036;-79
2021/12/12 06:34:37;;;;;;;;;;;3.90;99.90;;;;;;5102811;28;20024;-79
2021/12/12 06:37:04;;;;;;;20.85;9.85;;;3.80;99.90;;;;;;5100905;28;19904;-78
2021/12/12 06:39:32;;;;;;;18.83;9.20;;;3.90;99.90;;;;;;5099033;28;20031;-79
2021/12/12 06:41:58;;;;;;;18.30;8.93;;;3.80;99.90;;;;;;5095011;28;20105;-78
2021/12/12 06:44:24;;;;;;;17.08;8.85;;;3.90;99.90;;;;;;5097405;28;20020;-79
2021/12/12 06:46:50;;;;;;;;;;;3.90;99.90;;;;;;5100825;28;20043;-79
2021/12/12 06:49:17;;;;;;;16.45;7.78;;;3.90;99.90;;;;;;5098707;28;19945;-80
2021/12/12 06:51:51;;;;;;;22.17;8.27;;;3.90;99.90;;;;;;5100783;28;20054;-80
2021/12/12 06:54:19;;;;;;;18.40;8.80;;;3.90;99.90;;;;;;5101072;28;20028;-80
2021/12/12 06:56:48;;;;;;;18.40;9.13;;;4.00;99.90;;;;;;5096731;28;20063;-78
2021/12/12 06:59:14;;;;;;;22.90;9.73;;;4.00;99.90;;;;;;5098411;28;20107;-79
2021/12/12 07:01:40;;;;;;;;;;;4.00;99.90;;;;;;5100720;28;20496;-79
2021/12/12 07:04:10;;;;;;;17.23;9.18;;;4.00;99.90;;;;;;5097959;28;19904;-80
2021/12/12 07:06:37;;;;;;;22.98;12.30;;;3.90;99.90;;;;;;5097444;28;20024;-80
2021/12/12 07:09:07;;;;;;;25.77;8.77;;;3.80;99.90;;;;;;5095178;28;20042;-79
2021/12/12 07:11:35;;;;;;;23.13;11.38;;;4.10;99.90;;;;;;5093676;28;20088;-78
2021/12/12 07:14:01;;;;;;;15.77;9.23;;;4.20;99.90;;;;;;5092803;28;20036;-79
2021/12/12 07:16:27;;;;;;;27.60;13.35;;;4.30;99.90;;;;;;5096331;28;20020;-78
2021/12/12 07:18:54;;;;;;;;;;;4.20;99.90;;;;;;5096121;28;20503;-80
2021/12/12 07:21:21;;;;;;;17.60;9.33;;;4.10;99.90;;;;;;5095620;28;19904;-78
2021/12/12 07:23:49;;;;;;;16.90;8.98;;;4.20;99.90;;;;;;5096081;28;20042;-79
2021/12/12 07:26:16;;;;;;;19.27;8.40;;;4.10;99.90;;;;;;5093748;28;20024;-78
2021/12/12 07:28:44;;;;;;;16.08;8.52;;;4.20;99.90;;;;;;5094362;28;20093;-76
2021/12/12 07:31:13;;;;;;;16.95;7.43;;;4.40;99.90;;;;;;5073860;28;20036;-79
2021/12/12 07:33:40;;;;;;;17.27;8.75;;;4.40;99.90;;;;;;5093487;28;20034;-79
2021/12/12 07:36:09;;;;;;;16.20;8.13;;;4.50;99.90;;;;;;5093885;28;20028;-79
2021/12/12 07:38:37;;;;;;;18.33;8.23;;;4.60;99.90;;;;;;5094320;28;20400;-79
2021/12/12 07:41:05;;;;;;;22.80;10.13;;;4.60;99.90;;;;;;5091704;28;20480;-79
2021/12/12 07:43:32;;;;;;;15.93;8.50;;;4.60;99.90;;;;;;5090814;28;20089;-79
2021/12/12 07:45:58;;;;;;;20.60;10.20;;;4.70;99.90;;;;;;5093900;28;20028;-80
2021/12/12 07:48:24;;;;;;;;;;;4.70;99.90;;;;;;5093955;28;20401;-79
2021/12/12 07:50:51;;;;;;;19.05;9.20;;;4.80;99.90;;;;;;5092880;28;19908;-78
2021/12/12 07:53:18;;;;;;;18.90;9.32;;;4.80;99.90;;;;;;5090693;28;20032;-78
2021/12/12 07:55:44;;;;;;;17.42;8.02;;;4.90;99.90;;;;;;5089671;28;20074;-77
2021/12/12 07:58:14;;;;;;;17.88;8.98;;;4.90;99.90;;;;;;5089073;28;20028;-77
2021/12/12 08:00:43;;;;;;;18.38;9.32;;;5.00;99.90;;;;;;5090979;28;20079;-78
2021/12/12 08:03:09;;;;;;;13.55;7.47;;;5.00;99.90;;;;;;5091883;28;20051;-78
2021/12/12 08:05:35;;;;;;;;;;;5.00;99.90;;;;;;5092703;28;20508;-79
2021/12/12 08:08:06;;;;;;;15.48;7.43;;;4.90;99.90;;;;;;5095906;28;20010;-79
2021/12/12 08:10:32;;;;;;;24.42;8.82;;;4.90;99.90;;;;;;5092071;28;20524;-79
2021/12/12 08:12:59;;;;;;;18.63;8.40;;;4.90;99.90;;;;;;5091881;28;20043;-79
2021/12/12 08:15:27;;;;;;;18.40;8.88;;;4.90;99.90;;;;;;5091257;28;20054;-79
2021/12/12 08:17:54;;;;;;;17.30;8.68;;;4.90;99.90;;;;;;5094008;28;20412;-79
2021/12/12 08:20:21;;;;;;;15.88;8.73;;;4.90;99.90;;;;;;5089656;28;20028;-79
2021/12/12 08:22:48;;;;;;;17.10;8.55;;;4.90;99.90;;;;;;5090582;28;20027;-78
2021/12/12 08:25:16;;;;;;;15.45;7.70;;;5.00;99.90;;;;;;5094244;28;20027;-78
2021/12/12 08:27:42;;;;;;;19.02;8.38;;;5.00;99.90;;;;;;5091546;28;20427;-79
2021/12/12 08:30:10;;;;;;;21.25;7.82;;;5.00;99.90;;;;;;5089198;28;20668;-79
2021/12/12 08:32:37;;;;;;;16.23;7.38;;;5.00;99.90;;;;;;5090094;28;20076;-80
2021/12/12 08:35:05;;;;;;;18.70;9.82;;;5.00;99.90;;;;;;5089997;28;20495;-78
2021/12/12 08:37:32;;;;;;;18.50;9.35;;;5.00;99.90;;;;;;5089466;28;20051;-79
2021/12/12 08:39:58;;;;;;;18.50;9.25;;;5.00;99.90;;;;;;5089393;28;20453;-78
2021/12/12 08:42:27;;;;;;;16.70;8.27;;;4.90;99.90;;;;;;5090370;28;20084;-80
2021/12/12 08:44:55;;;;;;;19.15;10.23;;;5.00;99.90;;;;;;5099007;28;20020;-80
2021/12/12 08:47:21;;;;;;;19.33;8.90;;;5.00;99.90;;;;;;5100011;28;20032;-81
2021/12/12 08:49:47;;;;;;;;;;;5.10;99.90;;;;;;5095367;28;20063;-79
2021/12/12 08:52:18;;;;;;;15.60;7.68;;;5.00;99.90;;;;;;5096897;28;19916;-80
2021/12/12 08:54:47;;;;;;;14.07;7.25;;;5.10;99.90;;;;;;5093823;28;20069;-79
2021/12/12 09:00:21;;;;;;;12.45;6.57;;;5.20;99.90;;;;;;5104453;28;20035;-79
2021/12/12 09:02:49;;;;;;;15.32;7.72;;;5.30;99.90;;;;;;5095254;28;20028;-78
2021/12/12 09:05:18;;;;;;;13.07;6.70;;;5.30;99.90;;;;;;5095390;28;20031;-79
2021/12/12 09:07:48;;;;;;;12.68;6.75;;;5.20;99.90;;;;;;5095250;28;20085;-79
2021/12/12 09:10:30;;;;;;;12.35;6.95;;;5.30;99.90;;;;;;5096873;28;20048;-79
2021/12/12 09:13:06;;;;;;;14.23;8.27;;;5.30;99.90;;;;;;5094170;28;20131;-79
2021/12/12 09:15:41;;;;;;;15.40;7.45;;;5.40;99.90;;;;;;5092135;28;20056;-78
2021/12/12 09:18:17;;;;;;;16.80;7.68;;;5.50;99.90;;;;;;5095661;28;20059;-79
2021/12/12 09:20:52;;;;;;;16.02;7.75;;;5.40;99.90;;;;;;5092939;28;20119;-79
2021/12/12 09:23:26;;;;;;;14.43;7.13;;;5.40;99.90;;;;;;5098305;28;20016;-80
2021/12/12 09:25:59;;;;;;;12.55;6.68;;;5.50;99.90;;;;;;5106012;28;20036;-80
2021/12/12 09:28:32;;;;;;;18.23;8.02;;;5.50;99.90;;;;;;5105437;28;20032;-80
2021/12/12 09:31:06;;;;;;;11.38;6.60;;;5.40;99.90;;;;;;5101653;28;20092;-79
2021/12/12 09:33:53;;;;;;;14.45;6.90;;;5.40;99.90;;;;;;5096680;28;20031;-79
2021/12/12 09:36:24;;;;;;;15.38;7.43;;;5.50;99.90;;;;;;5095589;28;20027;-80
2021/12/12 09:39:05;;;;;;;11.07;6.03;;;5.60;99.90;;;;;;5094281;28;20063;-77
2021/12/12 09:41:55;;;;;;;15.13;5.80;;;5.60;99.90;;;;;;5091794;28;20032;-78
2021/12/12 09:44:49;;;;;;;10.48;5.38;;;5.70;99.90;;;;;;5095423;28;20031;-80
2021/12/12 09:47:58;;;;;;;10.27;5.35;;;5.60;99.90;;;;;;5094957;28;20097;-80
2021/12/12 09:54:01;;;;;;;14.02;5.07;;;5.60;99.90;;;;;;5100888;28;20047;-79
2021/12/12 09:56:45;;;;;;;10.85;5.38;;;5.60;99.90;;;;;;5098207;28;20051;-80
2021/12/12 09:59:31;;;;;;;11.80;6.07;;;5.50;99.90;;;;;;5100599;28;20090;-81
2021/12/12 10:02:24;;;;;;;10.90;6.10;;;5.50;99.90;;;;;;5103883;28;20540;-80
2021/12/12 10:05:02;;;;;;;11.45;5.78;;;5.40;99.90;;;;;;5102719;28;20446;-80
2021/12/12 10:07:43;;;;;;;10.05;5.88;;;5.40;99.90;;;;;;5101245;28;20031;-80
2021/12/12 10:10:20;;;;;;;7.88;4.70;;;5.50;99.90;;;;;;5101934;28;20051;-81
2021/12/12 10:12:53;;;;;;;;;;;5.70;99.90;;;;;;5101184;28;20048;-80
2021/12/12 10:15:23;;;;;;;8.85;4.88;;;5.80;99.90;;;;;;5097665;28;19904;-78
2021/12/12 10:18:11;;;;;;;11.10;5.95;;;5.80;99.90;;;;;;5097083;28;20035;-80
2021/12/12 10:21:04;;;;;;;11.40;6.18;;;5.60;99.90;;;;;;5096665;28;20377;-79
2021/12/12 10:23:35;;;;;;;11.93;6.03;;;5.70;99.90;;;;;;5098193;28;20020;-79
2021/12/12 10:26:05;;;;;;;12.90;6.75;;;5.60;99.90;;;;;;5099176;28;20048;-80
2021/12/12 10:28:43;;;;;;;27.40;11.80;;;5.50;99.90;;;;;;5099275;28;20032;-80
2021/12/12 10:31:21;;;;;;;15.70;5.68;;;5.60;99.90;;;;;;5098261;28;20031;-79
2021/12/12 10:33:52;;;;;;;10.77;6.05;;;5.50;99.90;;;;;;5100341;28;20036;-79
2021/12/12 10:36:27;;;;;;;9.88;5.03;;;5.50;99.90;;;;;;5098818;28;20028;-79
2021/12/12 10:39:17;;;;;;;11.38;6.05;;;5.50;99.90;;;;;;5095979;28;20074;-79
2021/12/12 10:41:45;;;;;;;13.25;6.60;;;5.60;99.90;;;;;;5097769;28;20028;-79
2021/12/12 10:44:23;;;;;;;9.85;5.93;;;5.70;99.90;;;;;;5096104;28;20028;-78
2021/12/12 10:46:57;;;;;;;12.68;6.40;;;5.70;99.90;;;;;;5096848;28;20035;-78
2021/12/12 10:49:52;;;;;;;11.07;6.40;;;5.60;99.90;;;;;;5099739;28;20484;-80
2021/12/12 10:52:43;;;;;;;17.98;9.35;;;5.60;99.90;;;;;;5097262;28;20028;-81
2021/12/12 10:55:48;;;;;;;12.93;6.50;;;5.70;99.90;;;;;;5103594;28;20031;-80
2021/12/12 10:58:29;;;;;;;17.52;8.50;;;5.70;99.90;;;;;;5097527;28;20035;-79
2021/12/12 11:01:02;;;;;;;14.77;7.50;;;5.80;99.90;;;;;;5097285;28;20549;-78
2021/12/12 11:03:33;;;;;;;12.65;6.28;;;5.80;99.90;;;;;;5097615;28;20039;-80
2021/12/12 11:06:11;;;;;;;8.77;5.60;;;5.70;99.90;;;;;;5101146;28;20066;-79
2021/12/12 11:09:00;;;;;;;11.40;6.90;;;5.80;99.90;;;;;;5100509;28;20035;-79
2021/12/12 11:11:42;;;;;;;11.00;6.40;;;5.80;99.90;;;;;;5099604;28;20135;-80
2021/12/12 11:14:27;;;;;;;10.05;5.60;;;5.80;99.90;;;;;;5098443;28;20107;-79
2021/12/12 11:17:10;;;;;;;9.48;5.88;;;5.90;99.90;;;;;;5095583;28;20061;-79
2021/12/12 11:19:44;;;;;;;25.55;14.63;;;5.80;99.90;;;;;;5098820;28;20036;-80
2021/12/12 11:22:29;;;;;;;21.27;11.45;;;5.80;99.90;;;;;;5099682;28;20026;-79
2021/12/12 11:25:23;;;;;;;13.18;7.75;;;5.80;99.90;;;;;;5097860;28;20497;-79
2021/12/12 11:28:22;;;;;;;10.07;5.63;;;6.00;99.60;;;;;;5097324;28;20484;-79
2021/12/12 11:30:59;;;;;;;10.88;5.95;;;6.10;99.90;;;;;;5094363;28;20123;-79
2021/12/12 11:33:30;;;;;;;23.38;12.52;;;6.00;99.90;;;;;;5098212;28;20043;-79
2021/12/12 11:35:57;;;;;;;27.90;14.93;;;6.00;99.90;;;;;;5099891;28;20054;-80
2021/12/12 11:38:31;;;;;;;19.23;8.75;;;6.00;99.90;;;;;;5099844;28;20440;-78
2021/12/12 11:41:33;;;;;;;17.63;7.45;;;6.00;99.90;;;;;;5097763;28;20039;-80
2021/12/12 11:44:07;;;;;;;18.00;9.32;;;6.00;99.90;;;;;;5094059;28;20036;-79
2021/12/12 11:46:49;;;;;;;9.38;5.40;;;6.10;99.90;;;;;;5099007;28;20054;-80
2021/12/12 11:49:27;;;;;;;16.08;7.20;;;6.00;99.20;;;;;;5098190;28;20113;-79
2021/12/12 11:52:01;;;;;;;12.25;6.63;;;6.00;99.90;;;;;;5097723;28;20034;-79
2021/12/12 11:54:45;;;;;;;10.95;6.40;;;6.20;99.80;;;;;;5098354;28;20507;-80
2021/12/12 11:57:25;;;;;;;9.48;5.22;;;6.20;99.90;;;;;;5102099;28;20024;-80
2021/12/12 11:59:51;;;;;;;9.70;4.68;;;6.10;98.80;;;;;;5100420;28;20024;-80
2021/12/12 12:02:16;;;;;;;;;;;6.20;97.90;;;;;;5101974;28;20059;-81
2021/12/12 12:04:57;;;;;;;10.02;5.20;;;6.10;99.90;;;;;;5104615;28;19994;-79
2021/12/12 12:07:48;;;;;;;10.25;5.47;;;6.10;99.90;;;;;;5104965;28;20024;-80
2021/12/12 12:10:30;;;;;;;9.07;5.57;;;6.10;99.90;;;;;;5097967;28;20056;-79
2021/12/12 12:13:19;;;;;;;21.80;12.38;;;6.30;99.60;;;;;;5097202;28;20464;-80
2021/12/12 12:15:57;;;;;;;11.48;6.45;;;6.10;99.10;;;;;;5098975;28;20063;-80
2021/12/12 12:18:26;;;;;;;9.27;4.85;;;6.20;98.90;;;;;;5096053;28;20484;-80
2021/12/12 12:21:27;;;;;;;9.55;4.72;;;6.10;99.20;;;;;;5101707;28;20108;-78
2021/12/12 12:27:02;;;;;;;6.38;3.63;;;6.20;98.90;;;;;;5095816;28;20037;-80
2021/12/12 12:29:28;;;;;;;7.05;4.15;;;6.20;98.90;;;;;;5095558;28;20048;-80
2021/12/12 12:32:12;;;;;;;;;;;6.10;99.00;;;;;;5094857;28;20039;-80
2021/12/12 12:35:09;;;;;;;8.48;4.40;;;6.20;98.50;;;;;;5096264;28;19907;-80
2021/12/12 12:37:52;;;;;;;8.00;3.90;;;6.20;99.10;;;;;;5094513;28;20093;-78
2021/12/12 12:40:56;;;;;;;7.82;4.50;;;6.00;99.80;;;;;;5094206;28;20396;-79
2021/12/12 12:43:43;;;;;;;11.00;4.85;;;6.10;99.40;;;;;;5097220;28;20012;-78
2021/12/12 12:46:08;;;;;;;;;;;6.00;99.90;;;;;;5095529;28;20035;-80
2021/12/12 12:49:11;;;;;;;5.90;4.00;;;5.90;99.90;;;;;;5096153;28;19923;-79
2021/12/12 12:52:20;;;;;;;11.20;3.60;;;5.90;99.40;;;;;;5094528;28;20694;-79
2021/12/12 12:55:24;;;;;;;4.20;2.50;;;6.00;99.10;;;;;;5093949;28;20035;-79
2021/12/12 12:57:54;;;;;;;6.03;3.60;;;6.00;98.20;;;;;;5094412;28;20036;-81
2021/12/12 13:00:23;;;;;;;5.03;2.75;;;5.90;98.10;;;;;;5096030;28;20032;-79
2021/12/12 13:03:01;;;;;;;7.57;3.97;;;6.00;97.80;;;;;;5094944;28;20028;-80
2021/12/12 13:05:26;;;;;;;9.82;4.32;;;6.00;97.40;;;;;;5094887;28;20031;-80
2021/12/12 13:07:58;;;;;;;;;;;6.10;97.80;;;;;;5097417;28;20024;-80
2021/12/12 13:10:28;;;;;;;6.22;3.17;;;6.00;97.40;;;;;;5094099;28;19937;-80
2021/12/12 13:13:11;;;;;;;6.72;3.55;;;6.00;98.30;;;;;;5096273;28;20039;-80
2021/12/12 13:15:42;;;;;;;7.57;3.95;;;6.00;97.70;;;;;;5095902;28;20020;-79
2021/12/12 13:18:32;;;;;;;8.63;3.60;;;6.00;97.60;;;;;;5095973;28;20442;-78
2021/12/12 13:21:32;;;;;;;6.97;3.65;;;5.90;98.30;;;;;;5099599;28;20024;-80
2021/12/12 13:24:12;;;;;;;7.07;3.47;;;6.00;97.60;;;;;;5095519;28;20035;-79
2021/12/12 13:27:34;;;;;;;16.98;6.20;;;5.90;97.10;;;;;;5095055;28;20024;-80
2021/12/12 13:30:28;;;;;;;8.57;3.60;;;5.80;97.60;;;;;;5092004;28;20062;-80
2021/12/12 13:33:21;;;;;;;9.93;3.53;;;5.90;96.50;;;;;;5097126;28;20035;-80
2021/12/12 13:36:14;;;;;;;7.60;3.10;;;5.90;96.20;;;;;;5097620;28;20089;-80
2021/12/12 13:38:55;;;;;;;8.88;4.15;;;5.80;96.70;;;;;;5098997;28;20553;-81
2021/12/12 13:41:47;;;;;;;8.50;3.95;;;5.90;96.30;;;;;;5098162;28;20029;-80
2021/12/12 13:44:31;;;;;;;6.22;2.78;;;5.90;95.90;;;;;;5098403;28;20024;-80
2021/12/12 13:47:09;;;;;;;7.10;4.10;;;5.90;93.40;;;;;;5097435;28;20028;-80
2021/12/12 13:49:47;;;;;;;9.23;4.10;;;5.90;94.10;;;;;;5102719;28;20094;-80
2021/12/12 13:52:20;;;;;;;6.90;3.97;;;5.90;94.30;;;;;;5097705;28;20437;-81
2021/12/12 13:55:13;;;;;;;5.93;2.90;;;5.90;93.40;;;;;;5097792;28;20059;-80